Time;durP1;ratioP1;P1;durP2;ratioP2;P2;SDS_P1;SDS_P2;PMS_P1;PMS_P2;Temp;Humidity;BMP_temperature;BMP_pressure;BME280_temperature;BME280_humidity;BME280_pressure;Samples;Min_cycle;Max_cycle;Signal;HPM_P1;HPM_P2
2021/11/02 00:01:09;;;;;;;3.55;0.93;;;23.50;53.50;;;;;;4169034;28;20072;-62
2021/11/02 00:03:32;;;;;;;2.40;1.15;;;23.50;53.10;;;;;;4194427;28;20038;-60
2021/11/02 00:05:58;;;;;;;2.63;1.10;;;23.50;53.20;;;;;;4189736;28;20036;-59
2021/11/02 00:08:20;;;;;;;3.00;0.90;;;23.50;53.10;;;;;;4190318;28;20055;-56
2021/11/02 00:10:43;;;;;;;3.70;1.35;;;23.60;53.40;;;;;;4186839;28;20050;-51
2021/11/02 00:13:05;;;;;;;3.17;0.90;;;23.60;53.30;;;;;;4184744;28;20215;-58
2021/11/02 00:15:30;;;;;;;1.92;1.13;;;23.60;53.20;;;;;;4188273;28;20040;-59
2021/11/02 00:18:03;;;;;;;6.90;1.13;;;23.70;52.70;;;;;;4188055;28;20750;-59
2021/11/02 00:20:26;;;;;;;2.72;1.20;;;23.70;52.70;;;;;;4185154;28;20159;-57
2021/11/02 00:22:58;;;;;;;2.28;0.93;;;23.80;52.60;;;;;;4178176;28;20077;-59
2021/11/02 00:25:23;;;;;;;5.25;1.00;;;23.80;52.50;;;;;;4184504;28;20033;-59
2021/11/02 00:27:45;;;;;;;1.95;0.93;;;23.80;52.60;;;;;;4190908;28;20050;-59
2021/11/02 00:30:11;;;;;;;2.55;1.20;;;23.90;52.50;;;;;;4194995;28;20040;-58
2021/11/02 00:32:33;;;;;;;2.88;1.17;;;23.90;52.30;;;;;;4189814;28;20039;-57
2021/11/02 00:34:57;;;;;;;4.38;1.20;;;24.00;52.30;;;;;;4196557;28;20060;-58
2021/11/02 00:37:20;;;;;;;2.47;1.40;;;24.00;51.90;;;;;;4188927;28;20908;-57
2021/11/02 00:39:42;;;;;;;2.75;1.00;;;24.00;51.80;;;;;;4195378;28;20036;-57
2021/11/02 00:42:07;;;;;;;3.22;1.17;;;24.00;51.80;;;;;;4190520;28;20055;-58
2021/11/02 00:44:29;;;;;;;3.42;1.33;;;24.10;51.80;;;;;;4185398;28;20037;-55
2021/11/02 00:46:52;;;;;;;4.03;0.98;;;24.10;51.60;;;;;;4186135;28;20020;-56
2021/11/02 00:49:18;;;;;;;2.03;1.25;;;24.20;51.40;;;;;;4186825;28;20066;-58
2021/11/02 00:51:41;;;;;;;2.30;1.10;;;24.20;51.70;;;;;;4195426;28;20028;-56
2021/11/02 00:54:03;;;;;;;4.40;1.15;;;24.20;51.20;;;;;;4191391;28;20524;-58
2021/11/02 00:56:25;;;;;;;3.20;1.10;;;24.20;50.90;;;;;;4191001;28;20046;-62
2021/11/02 00:58:48;;;;;;;3.28;1.10;;;24.20;51.00;;;;;;4189198;28;20063;-62
2021/11/02 01:02:12;;;;;;;1.42;0.80;;;24.30;50.40;;;;;;4181197;27;20889;-61
2021/11/02 01:04:34;;;;;;;2.17;0.98;;;24.30;50.60;;;;;;4205274;28;20963;-61
2021/11/02 01:06:57;;;;;;;2.63;1.00;;;24.30;50.50;;;;;;4208377;28;20036;-63
2021/11/02 01:09:19;;;;;;;3.33;0.88;;;24.30;50.30;;;;;;4210376;28;20419;-62
2021/11/02 01:11:42;;;;;;;2.35;0.77;;;24.30;50.10;;;;;;4222792;28;20040;-62
2021/11/02 01:14:04;;;;;;;2.97;0.75;;;24.40;50.00;;;;;;4221659;27;20023;-61
2021/11/02 01:16:28;;;;;;;2.15;0.73;;;24.40;50.20;;;;;;4223580;28;20376;-62
2021/11/02 01:18:51;;;;;;;2.20;1.30;;;24.40;49.90;;;;;;4215616;28;20040;-62
2021/11/02 01:21:13;;;;;;;2.20;1.20;;;24.40;49.70;;;;;;4216192;28;21024;-62
2021/11/02 01:23:36;;;;;;;3.47;1.45;;;24.40;49.50;;;;;;4223101;28;20609;-58
2021/11/02 01:25:59;;;;;;;3.08;0.98;;;24.40;49.30;;;;;;4222821;28;20570;-61
2021/11/02 01:28:21;;;;;;;2.42;1.10;;;24.40;49.20;;;;;;4224062;28;20070;-61
2021/11/02 01:30:44;;;;;;;1.98;0.88;;;24.50;49.20;;;;;;4219275;28;20714;-61
2021/11/02 01:33:06;;;;;;;2.53;0.82;;;24.50;49.30;;;;;;4218263;28;20075;-62
2021/11/02 01:35:29;;;;;;;3.53;0.82;;;24.50;49.20;;;;;;4221983;28;20402;-63
2021/11/02 01:37:51;;;;;;;2.17;1.27;;;24.50;49.10;;;;;;4225287;27;20092;-51
2021/11/02 01:40:17;;;;;;;2.08;0.90;;;24.50;49.60;;;;;;4203950;28;20042;-59
2021/11/02 01:42:40;;;;;;;2.40;1.10;;;24.50;49.00;;;;;;4223946;27;20044;-61
2021/11/02 01:45:03;;;;;;;2.58;0.98;;;24.60;48.90;;;;;;4220436;28;20066;-61
2021/11/02 01:47:25;;;;;;;2.38;0.95;;;24.50;48.60;;;;;;4223638;28;20100;-60
2021/11/02 01:49:49;;;;;;;2.25;1.13;;;24.60;48.30;;;;;;4221843;28;20032;-63
2021/11/02 01:52:14;;;;;;;3.28;0.90;;;24.50;48.40;;;;;;4223400;28;20032;-64
2021/11/02 01:54:37;;;;;;;2.08;1.00;;;24.60;48.80;;;;;;4213760;28;20042;-64
2021/11/02 01:57:04;;;;;;;8.00;1.20;;;24.60;48.50;;;;;;4217934;27;20035;-63
2021/11/02 01:59:29;;;;;;;6.82;1.63;;;24.60;49.00;;;;;;4219963;28;20130;-62
2021/11/02 02:02:06;;;;;;;3.83;1.88;;;24.70;49.30;;;;;;4219678;28;20086;-64
2021/11/02 02:04:56;;;;;;;5.20;1.13;;;24.70;49.30;;;;;;4214857;28;20035;-64
2021/11/02 02:07:57;;;;;;;1.55;0.77;;;24.70;49.10;;;;;;4219520;28;20609;-63
2021/11/02 02:11:18;;;;;;;2.85;0.82;;;24.80;49.40;;;;;;4213951;28;20052;-62
2021/11/02 02:13:50;;;;;;;2.88;0.98;;;24.80;49.30;;;;;;4184730;28;20046;-60
2021/11/02 02:16:34;;;;;;;2.20;0.90;;;24.80;48.80;;;;;;4202934;28;20035;-65
2021/11/02 02:19:18;;;;;;;4.13;1.27;;;24.90;48.90;;;;;;4208556;28;20039;-65
2021/11/02 02:22:09;;;;;;;2.88;1.00;;;24.90;49.00;;;;;;4209090;28;20047;-63
2021/11/02 02:24:54;;;;;;;2.05;0.82;;;24.90;49.40;;;;;;4207302;28;20099;-66
2021/11/02 02:27:23;;;;;;;2.97;1.25;;;25.00;49.70;;;;;;4211988;28;20055;-65
2021/11/02 02:29:46;;;;;;;6.55;1.35;;;25.00;50.00;;;;;;4209392;28;20134;-65
2021/11/02 02:32:15;;;;;;;1.90;0.90;;;25.10;49.80;;;;;;4207789;28;20123;-65
2021/11/02 02:34:39;;;;;;;1.42;0.68;;;25.10;49.20;;;;;;4191958;28;20051;-67
2021/11/02 02:37:01;;;;;;;;;;;25.10;50.20;;;;;;4209273;28;20028;-67
2021/11/02 02:39:25;;;;;;;3.53;0.85;;;25.20;49.90;;;;;;4207074;28;19964;-64
2021/11/02 02:41:50;;;;;;;1.45;0.90;;;25.20;49.70;;;;;;4204870;27;20054;-64
2021/11/02 02:44:13;;;;;;;2.33;0.85;;;25.30;49.70;;;;;;4207128;28;20027;-60
2021/11/02 02:46:39;;;;;;;3.60;1.27;;;25.30;49.20;;;;;;4206360;27;20096;-62
2021/11/02 02:49:04;;;;;;;3.00;1.20;;;25.30;48.60;;;;;;4202956;27;20416;-65
2021/11/02 02:51:34;;;;;;;1.23;0.90;;;25.40;48.60;;;;;;4187148;28;20036;-64
2021/11/02 02:53:58;;;;;;;3.15;1.15;;;25.30;48.30;;;;;;4200759;28;20501;-63
2021/11/02 02:56:21;;;;;;;3.30;1.00;;;25.30;48.10;;;;;;4188215;28;20093;-63
2021/11/02 02:58:47;;;;;;;3.08;0.95;;;25.40;47.90;;;;;;4206312;28;20419;-63
2021/11/02 03:01:13;;;;;;;1.90;0.90;;;25.40;47.50;;;;;;4205662;28;20569;-63
2021/11/02 03:03:38;;;;;;;1.88;0.90;;;25.40;47.30;;;;;;4202224;28;20032;-62
2021/11/02 03:06:04;;;;;;;2.58;0.85;;;25.40;47.00;;;;;;4202179;28;20045;-63
2021/11/02 03:08:28;;;;;;;1.90;0.88;;;25.40;46.60;;;;;;4187305;28;20039;-61
2021/11/02 03:10:54;;;;;;;3.40;1.10;;;25.40;46.60;;;;;;4204976;28;22040;-64
2021/11/02 03:13:18;;;;;;;2.00;1.10;;;25.40;46.50;;;;;;4204912;28;20032;-64
2021/11/02 03:45:15;;;;;;;2.55;0.70;;;25.50;47.00;;;;;;4207297;28;20035;-64
2021/11/02 03:50:42;;;;;;;1.70;0.85;;;25.50;47.20;;;;;;4206070;28;20040;-64
2021/11/02 03:58:26;;;;;;;1.17;0.55;;;25.70;48.50;;;;;;4202305;28;20240;-63
2021/11/02 04:45:55;;;;;;;2.33;0.77;;;26.70;49.10;;;;;;4184127;28;20141;-64
2021/11/02 05:46:48;;;;;;;1.90;0.80;;;28.10;47.10;;;;;;4177476;28;20061;-66
2021/11/02 05:54:46;;;;;;;2.30;1.00;;;28.10;46.40;;;;;;4176955;28;20073;-67
2021/11/02 05:59:54;;;;;;;4.00;1.23;;;28.10;46.70;;;;;;4180068;28;20401;-70
2021/11/02 06:02:34;;;;;;;9.43;1.55;;;28.20;46.50;;;;;;4175329;28;20052;-69
2021/11/02 06:05:12;;;;;;;2.58;1.10;;;28.20;47.00;;;;;;4182693;28;20032;-66
2021/11/02 06:07:48;;;;;;;3.30;0.85;;;28.20;46.50;;;;;;4168847;28;20040;-67
2021/11/02 06:30:12;;;;;;;3.05;1.08;;;28.60;46.00;;;;;;4175885;28;20047;-70
2021/11/02 06:32:37;;;;;;;3.28;1.23;;;28.70;46.00;;;;;;4178820;28;20407;-68
2021/11/02 06:53:30;;;;;;;3.90;1.08;;;29.00;46.30;;;;;;4171772;28;20041;-62
2021/11/02 06:59:46;;;;;;;2.65;0.90;;;28.90;46.50;;;;;;4177102;28;20072;-70
2021/11/02 07:18:11;;;;;;;2.63;1.10;;;29.10;46.70;;;;;;4193599;28;20047;-68
2021/11/02 07:20:54;;;;;;;2.33;0.93;;;29.00;46.50;;;;;;4197257;28;20517;-66
2021/11/02 07:24:03;;;;;;;4.25;1.25;;;29.00;46.30;;;;;;4194724;28;20110;-67
2021/11/02 08:45:58;;;;;;;2.90;1.45;;;28.00;48.80;;;;;;4176266;28;20052;-65
2021/11/02 08:48:12;;;;;;;2.97;1.40;;;28.00;49.00;;;;;;4181431;28;20044;-68
2021/11/02 08:50:41;;;;;;;4.18;1.67;;;28.00;49.10;;;;;;4177471;28;20106;-64
2021/11/02 08:53:07;;;;;;;2.30;1.08;;;28.00;49.10;;;;;;4180597;28;20056;-65
2021/11/02 08:55:29;;;;;;;2.50;1.25;;;28.00;49.10;;;;;;4173641;28;20578;-65
2021/11/02 08:57:56;;;;;;;2.95;1.30;;;28.00;48.80;;;;;;4173865;28;20581;-66
2021/11/02 09:00:19;;;;;;;4.32;1.20;;;27.90;48.50;;;;;;4172386;28;20124;-64
2021/11/02 09:02:48;;;;;;;4.97;1.77;;;27.90;48.30;;;;;;4176252;28;20097;-66
2021/11/02 09:05:14;;;;;;;3.33;1.40;;;27.90;48.50;;;;;;4176458;28;20037;-65
2021/11/02 09:07:38;;;;;;;6.70;1.60;;;27.80;48.50;;;;;;4176511;28;20121;-64
2021/11/02 09:10:04;;;;;;;10.98;1.63;;;27.80;48.80;;;;;;4175429;28;20042;-65
2021/11/02 09:12:31;;;;;;;4.45;1.30;;;27.80;48.90;;;;;;4174490;28;20067;-63
2021/11/02 09:14:56;;;;;;;3.20;1.42;;;27.80;49.00;;;;;;4178075;28;20068;-63
2021/11/02 09:17:21;;;;;;;7.20;1.50;;;27.80;49.20;;;;;;4168625;28;20036;-62
2021/11/02 09:19:43;;;;;;;3.22;1.33;;;27.70;49.30;;;;;;4177101;28;20039;-63
2021/11/02 09:22:10;;;;;;;4.57;1.40;;;27.70;49.30;;;;;;4167852;28;20053;-63
2021/11/02 09:24:41;;;;;;;4.80;1.42;;;27.70;49.30;;;;;;4171937;28;20059;-65
2021/11/02 09:27:05;;;;;;;5.38;1.83;;;27.70;49.40;;;;;;4171855;28;20052;-62
2021/11/02 09:29:30;;;;;;;4.95;1.30;;;27.70;49.60;;;;;;4178920;28;20055;-64
2021/11/02 09:32:01;;;;;;;3.22;1.42;;;27.70;49.70;;;;;;4174361;28;20110;-64
2021/11/02 09:34:25;;;;;;;3.17;1.17;;;27.70;49.60;;;;;;4175759;28;20063;-61
2021/11/02 09:37:02;;;;;;;5.55;1.60;;;27.60;49.60;;;;;;4175937;28;20052;-63
2021/11/02 09:39:30;;;;;;;4.05;1.42;;;27.60;49.60;;;;;;4186233;28;20131;-60
2021/11/02 09:42:26;;;;;;;2.95;1.40;;;27.60;49.60;;;;;;4170787;28;20059;-65
2021/11/02 09:45:02;;;;;;;3.20;1.52;;;27.60;49.60;;;;;;4176517;28;20051;-60
2021/11/02 09:47:46;;;;;;;3.28;1.52;;;27.50;49.60;;;;;;4177408;28;20450;-64
2021/11/02 09:50:32;;;;;;;10.65;1.45;;;27.50;49.80;;;;;;4177870;28;20662;-61
2021/11/02 09:53:03;;;;;;;4.70;1.40;;;27.50;49.80;;;;;;4162950;28;20147;-64
2021/11/02 09:55:59;;;;;;;6.05;1.60;;;27.50;49.90;;;;;;4177444;28;20440;-61
2021/11/02 09:58:36;;;;;;;3.30;1.33;;;27.50;49.90;;;;;;4177274;28;20074;-61
2021/11/02 10:02:22;;;;;;;3.08;1.52;;;27.50;49.30;;;;;;4212559;27;20516;-60
2021/11/02 10:04:56;;;;;;;4.10;1.35;;;27.50;50.00;;;;;;4206131;28;20051;-60
2021/11/02 10:07:39;;;;;;;2.38;1.30;;;27.50;49.90;;;;;;4207177;28;20036;-60
2021/11/02 10:10:21;;;;;;;3.88;1.50;;;27.40;50.00;;;;;;4196562;28;20046;-61
2021/11/02 10:13:00;;;;;;;2.25;1.10;;;27.40;50.10;;;;;;4186700;28;20047;-60
2021/11/02 10:15:59;;;;;;;2.90;1.27;;;27.40;50.20;;;;;;4189663;28;20066;-60
2021/11/02 10:18:30;;;;;;;4.18;1.63;;;27.40;50.30;;;;;;4165869;28;20044;-65
2021/11/02 10:21:23;;;;;;;4.68;1.30;;;27.40;50.50;;;;;;4188856;28;20059;-62
2021/11/02 10:24:04;;;;;;;2.97;1.65;;;27.30;50.50;;;;;;4189081;28;20041;-62
2021/11/02 10:26:31;;;;;;;1.65;1.02;;;27.30;50.70;;;;;;4190185;28;20479;-59
2021/11/02 10:29:03;;;;;;;2.75;1.30;;;27.30;50.70;;;;;;4191204;28;20028;-62
2021/11/02 10:31:36;;;;;;;2.55;1.42;;;27.30;50.90;;;;;;4189682;28;20482;-59
2021/11/02 10:34:21;;;;;;;2.15;1.05;;;27.30;51.20;;;;;;4189157;28;20068;-59
2021/11/02 10:36:56;;;;;;;3.90;1.48;;;27.30;51.20;;;;;;4177807;28;20142;-60
2021/11/02 10:39:55;;;;;;;3.42;1.17;;;27.30;51.10;;;;;;4189468;28;20040;-64
2021/11/02 10:42:41;;;;;;;2.95;1.48;;;27.30;50.70;;;;;;4165270;28;20040;-63
2021/11/02 10:45:09;;;;;;;2.75;1.50;;;27.20;50.60;;;;;;4186640;28;20051;-61
2021/11/02 10:47:45;;;;;;;3.95;1.63;;;27.20;50.70;;;;;;4189362;28;20046;-61
2021/11/02 10:50:13;;;;;;;4.25;1.33;;;27.20;50.70;;;;;;4190004;28;20809;-60
2021/11/02 10:52:37;;;;;;;3.55;1.30;;;27.20;50.90;;;;;;4187338;28;20941;-60
2021/11/02 10:55:24;;;;;;;3.53;1.58;;;27.20;51.00;;;;;;4190401;28;20043;-61
2021/11/02 10:58:10;;;;;;;3.63;1.25;;;27.20;51.00;;;;;;4190935;28;20047;-63
2021/11/02 11:00:34;;;;;;;3.63;1.40;;;27.20;51.00;;;;;;4190754;28;20060;-62
2021/11/02 11:02:56;;;;;;;4.15;1.30;;;27.10;51.00;;;;;;4189171;28;20085;-63
2021/11/02 11:05:20;;;;;;;5.90;1.60;;;27.20;51.10;;;;;;4190083;28;20442;-61
2021/11/02 11:07:46;;;;;;;6.50;1.10;;;27.10;51.10;;;;;;4190760;28;20040;-65
2021/11/02 11:10:11;;;;;;;2.80;1.30;;;27.10;51.00;;;;;;4193866;28;20513;-67
2021/11/02 11:12:57;;;;;;;4.47;1.48;;;27.10;51.10;;;;;;4189219;28;20036;-68
2021/11/02 11:15:20;;;;;;;2.50;1.13;;;27.10;51.10;;;;;;4178274;28;20037;-64
2021/11/02 11:17:51;;;;;;;4.13;1.20;;;27.10;51.10;;;;;;4177877;28;20760;-64
2021/11/02 11:20:15;;;;;;;5.20;1.40;;;27.00;51.10;;;;;;4173649;28;20857;-64
2021/11/02 11:22:50;;;;;;;1.98;1.00;;;27.00;51.00;;;;;;4179311;28;20044;-64
2021/11/02 11:25:16;;;;;;;4.45;1.20;;;27.00;51.10;;;;;;4166214;28;20064;-63
2021/11/02 11:27:55;;;;;;;4.28;1.35;;;27.00;51.20;;;;;;4176277;28;20036;-60
2021/11/02 11:30:19;;;;;;;2.90;1.60;;;27.00;51.10;;;;;;4164083;28;20068;-64
2021/11/02 11:32:41;;;;;;;;;;;27.00;51.10;;;;;;4179739;28;20147;-64
2021/11/02 11:35:05;;;;;;;3.35;1.20;;;26.90;51.10;;;;;;4177060;28;20018;-64
2021/11/02 11:37:31;;;;;;;2.90;1.38;;;27.00;51.10;;;;;;4178367;28;20055;-62
2021/11/02 11:40:14;;;;;;;7.88;1.50;;;26.90;51.10;;;;;;4177196;28;20082;-63
2021/11/02 11:42:38;;;;;;;2.88;1.20;;;26.90;51.10;;;;;;4176546;28;20704;-67
2021/11/02 11:45:04;;;;;;;;;;;26.90;51.10;;;;;;4164553;28;20033;-66
2021/11/02 11:47:26;;;;;;;3.13;1.00;;;26.90;51.20;;;;;;4174619;28;19925;-66
2021/11/02 11:49:49;;;;;;;2.45;1.30;;;26.90;51.30;;;;;;4175146;28;20132;-66
2021/11/02 11:52:12;;;;;;;4.18;1.33;;;26.80;51.20;;;;;;4175751;28;20121;-62
2021/11/02 11:54:50;;;;;;;3.30;1.33;;;26.80;50.90;;;;;;4161645;28;20563;-62
2021/11/02 11:57:27;;;;;;;2.95;1.13;;;26.80;50.80;;;;;;4179532;28;20133;-61
2021/11/02 11:59:49;;;;;;;3.08;1.00;;;26.80;50.60;;;;;;4175487;28;21495;-61
2021/11/02 12:02:32;;;;;;;4.80;1.55;;;26.80;50.60;;;;;;4177226;28;20170;-61
2021/11/02 12:04:59;;;;;;;6.05;1.60;;;26.70;50.50;;;;;;4178556;28;20105;-67
2021/11/02 12:07:48;;;;;;;6.55;1.38;;;26.70;50.50;;;;;;4177935;28;20045;-60
2021/11/02 12:10:12;;;;;;;2.88;1.30;;;26.70;51.60;;;;;;4177930;28;20039;-60
2021/11/02 12:12:36;;;;;;;3.40;1.27;;;26.60;52.30;;;;;;4179539;28;20044;-59
2021/11/02 12:14:59;;;;;;;3.83;1.08;;;26.60;52.40;;;;;;4176992;28;20044;-59
2021/11/02 12:17:24;;;;;;;;;;;26.60;52.50;;;;;;4177486;28;20144;-60
2021/11/02 12:19:56;;;;;;;2.78;1.17;;;26.60;52.50;;;;;;4177929;28;20329;-60
2021/11/02 12:22:26;;;;;;;3.00;1.23;;;26.60;52.60;;;;;;4178569;28;20056;-63
2021/11/02 12:25:01;;;;;;;3.90;1.00;;;26.60;52.70;;;;;;4176449;28;20643;-60
2021/11/02 12:27:23;;;;;;;5.55;1.33;;;26.60;52.70;;;;;;4177361;28;20053;-58
2021/11/02 12:29:51;;;;;;;4.95;1.33;;;26.60;53.00;;;;;;4176288;28;20540;-59
2021/11/02 12:32:17;;;;;;;16.15;1.90;;;26.60;53.10;;;;;;4176621;28;20035;-61
2021/11/02 12:35:04;;;;;;;6.15;1.88;;;26.60;53.20;;;;;;4177808;28;20487;-60
2021/11/02 12:37:27;;;;;;;15.20;2.03;;;26.50;53.20;;;;;;4175353;28;20065;-61
2021/11/02 12:39:51;;;;;;;22.83;2.40;;;26.50;53.60;;;;;;4179169;28;20048;-62
2021/11/02 12:42:20;;;;;;;5.05;1.27;;;26.50;53.70;;;;;;4178107;28;20132;-60
2021/11/02 12:44:45;;;;;;;7.53;1.85;;;26.50;53.70;;;;;;4175815;28;20072;-58
2021/11/02 12:47:17;;;;;;;5.85;1.50;;;26.40;53.30;;;;;;4179477;28;20045;-63
2021/11/02 12:49:53;;;;;;;4.85;1.25;;;26.40;53.50;;;;;;4180466;28;20040;-61
2021/11/02 12:52:19;;;;;;;7.60;1.55;;;26.40;53.50;;;;;;4183718;28;20067;-60
2021/11/02 12:54:43;;;;;;;4.25;1.63;;;26.30;53.40;;;;;;4185997;28;20143;-61
2021/11/02 12:57:32;;;;;;;3.10;1.50;;;26.30;53.40;;;;;;4186675;28;20400;-63
2021/11/02 13:00:00;;;;;;;2.42;1.30;;;26.30;53.40;;;;;;4184783;28;20045;-61
2021/11/02 13:02:29;;;;;;;3.50;1.40;;;26.30;52.90;;;;;;4197926;27;20549;-63
2021/11/02 13:05:02;;;;;;;2.22;1.20;;;26.30;53.40;;;;;;4191429;28;20048;-65
2021/11/02 13:07:26;;;;;;;4.32;1.52;;;26.30;53.40;;;;;;4192134;28;20037;-61
2021/11/02 13:09:51;;;;;;;3.53;1.30;;;26.30;53.40;;;;;;4192408;28;20040;-61
2021/11/02 13:12:15;;;;;;;2.50;1.20;;;26.20;53.30;;;;;;4192677;28;20024;-62
2021/11/02 13:14:49;;;;;;;4.55;1.50;;;26.20;53.30;;;;;;4191471;28;20538;-62
2021/11/02 13:17:17;;;;;;;2.40;1.10;;;26.20;53.30;;;;;;4191576;28;20052;-65
2021/11/02 13:19:51;;;;;;;5.90;1.42;;;26.20;53.30;;;;;;4192182;28;20048;-58
2021/11/02 13:22:19;;;;;;;8.57;1.38;;;26.20;53.50;;;;;;4189788;28;20209;-57
2021/11/02 13:25:00;;;;;;;3.65;1.77;;;26.10;53.50;;;;;;4192516;28;20062;-58
2021/11/02 13:27:42;;;;;;;2.95;1.05;;;26.10;53.30;;;;;;4191510;28;20043;-59
2021/11/02 13:30:32;;;;;;;4.65;1.20;;;26.10;53.30;;;;;;4191948;28;20040;-57
2021/11/02 13:33:19;;;;;;;5.93;1.30;;;26.10;53.20;;;;;;4191524;28;20040;-56
2021/11/02 13:35:52;;;;;;;6.05;1.30;;;26.10;53.30;;;;;;4192395;28;20051;-58
2021/11/02 13:38:37;;;;;;;2.70;1.00;;;26.10;53.30;;;;;;4191764;28;20036;-65
2021/11/02 13:41:23;;;;;;;1.83;1.00;;;26.10;53.30;;;;;;4190781;28;20299;-57
2021/11/02 13:43:50;;;;;;;2.70;1.00;;;26.10;53.40;;;;;;4191107;28;20138;-57
2021/11/02 13:46:16;;;;;;;2.67;0.95;;;26.00;53.40;;;;;;4190037;28;20032;-57
2021/11/02 13:48:41;;;;;;;3.70;1.20;;;26.00;53.30;;;;;;4193281;28;20077;-57
2021/11/02 13:51:05;;;;;;;3.05;0.98;;;26.00;53.40;;;;;;4191562;28;20062;-59
2021/11/02 13:53:32;;;;;;;3.15;1.50;;;25.90;53.50;;;;;;4193260;28;20044;-60
2021/11/02 13:55:55;;;;;;;3.22;1.20;;;26.00;53.70;;;;;;4190534;28;21552;-60
2021/11/02 13:58:18;;;;;;;2.17;0.80;;;25.90;53.70;;;;;;4190954;28;20659;-63
2021/11/02 14:00:41;;;;;;;2.58;1.00;;;25.90;53.80;;;;;;4189411;28;20620;-63
2021/11/02 14:03:09;;;;;;;3.63;1.50;;;25.90;53.20;;;;;;4191058;28;20081;-63
2021/11/02 14:05:32;;;;;;;3.85;1.10;;;25.90;53.70;;;;;;4190301;28;20036;-60
2021/11/02 14:07:56;;;;;;;3.47;1.00;;;25.90;54.40;;;;;;4191834;28;20131;-66
2021/11/02 14:10:19;;;;;;;3.88;1.10;;;25.80;53.70;;;;;;4191356;28;21676;-65
2021/11/02 14:12:54;;;;;;;3.30;1.03;;;25.90;53.80;;;;;;4186435;28;20068;-66
2021/11/02 14:15:21;;;;;;;3.03;1.20;;;25.80;53.70;;;;;;4180863;28;20043;-58
2021/11/02 14:17:53;;;;;;;4.18;0.70;;;25.90;53.90;;;;;;4179677;28;20168;-58
2021/11/02 14:20:36;;;;;;;2.13;1.00;;;25.80;53.80;;;;;;4180075;28;20029;-58
2021/11/02 14:22:59;;;;;;;1.67;0.90;;;25.80;53.80;;;;;;4178836;28;20049;-58
2021/11/02 14:42:44;;;;;;;2.22;0.80;;;25.70;53.80;;;;;;4179508;28;20048;-63
2021/11/02 14:45:10;;;;;;;3.35;1.00;;;25.70;53.90;;;;;;4178914;28;20127;-63
2021/11/02 14:47:36;;;;;;;2.58;1.05;;;25.70;53.80;;;;;;4179913;28;20131;-63
2021/11/02 15:08:47;;;;;;;1.95;0.90;;;25.60;54.00;;;;;;4178836;28;20110;-58
2021/11/02 15:11:18;;;;;;;1.08;0.57;;;25.60;54.00;;;;;;4179993;28;20225;-58
2021/11/02 15:13:56;;;;;;;2.40;1.10;;;25.60;54.00;;;;;;4179391;28;20054;-58
2021/11/02 15:16:20;;;;;;;1.38;0.75;;;25.50;54.00;;;;;;4178091;28;20047;-58
2021/11/02 15:18:49;;;;;;;1.63;0.80;;;25.50;53.90;;;;;;4188698;28;20051;-64
2021/11/02 15:21:17;;;;;;;3.50;1.23;;;25.50;54.70;;;;;;4182801;28;20139;-61
2021/11/02 15:23:47;;;;;;;5.68;1.10;;;25.50;54.10;;;;;;4188345;28;20507;-60
2021/11/02 15:26:10;;;;;;;3.40;0.98;;;25.50;54.20;;;;;;4185828;28;20066;-63
2021/11/02 15:28:41;;;;;;;1.83;0.90;;;25.50;54.20;;;;;;4185046;28;20048;-61
2021/11/02 15:31:05;;;;;;;1.20;0.70;;;25.50;54.20;;;;;;4188339;28;20059;-57
2021/11/02 15:33:30;;;;;;;;;;;25.50;54.20;;;;;;4184515;28;20048;-58
2021/11/02 15:35:52;;;;;;;1.80;0.80;;;25.50;54.20;;;;;;4187067;28;20296;-58
2021/11/02 15:38:25;;;;;;;2.28;0.80;;;25.40;54.10;;;;;;4185845;28;20036;-58
2021/11/02 15:40:48;;;;;;;2.42;0.98;;;25.40;54.10;;;;;;4186415;28;20064;-57
2021/11/02 15:43:13;;;;;;;3.33;1.23;;;25.40;54.10;;;;;;4186586;28;20048;-57
2021/11/02 15:45:39;;;;;;;2.90;1.08;;;25.40;54.00;;;;;;4186323;28;20821;-62
2021/11/02 15:48:31;;;;;;;2.10;0.77;;;25.40;54.10;;;;;;4186541;28;20041;-63
2021/11/02 15:50:56;;;;;;;3.08;1.20;;;25.40;54.10;;;;;;4186780;28;20440;-64
2021/11/02 15:53:23;;;;;;;2.08;0.80;;;25.40;54.20;;;;;;4184896;28;20151;-64
2021/11/02 15:55:46;;;;;;;1.30;0.73;;;25.40;54.20;;;;;;4187019;28;20585;-63
2021/11/02 15:58:11;;;;;;;3.65;1.40;;;25.30;54.10;;;;;;4177093;27;20037;-60
2021/11/02 16:02:13;;;;;;;2.78;1.05;;;25.30;53.60;;;;;;4190069;27;20410;-60
2021/11/02 16:04:36;;;;;;;2.15;0.88;;;25.30;54.20;;;;;;4186883;28;20536;-61
2021/11/02 16:07:01;;;;;;;1.98;0.88;;;25.30;54.10;;;;;;4188490;28;20064;-61
2021/11/02 16:09:45;;;;;;;1.88;1.02;;;25.20;54.10;;;;;;4185004;28;20556;-64
2021/11/02 16:12:32;;;;;;;1.45;1.08;;;25.20;54.10;;;;;;4170020;28;20040;-64
2021/11/02 16:14:56;;;;;;;2.08;0.82;;;25.20;54.20;;;;;;4171168;28;20530;-64
2021/11/02 16:17:20;;;;;;;1.63;0.85;;;25.20;54.20;;;;;;4172938;28;20523;-65
2021/11/02 16:19:43;;;;;;;;;;;25.20;54.20;;;;;;4170732;28;20491;-64
2021/11/02 16:22:05;;;;;;;2.00;1.10;;;25.20;54.30;;;;;;4172206;28;19925;-64
2021/11/02 16:24:28;;;;;;;2.47;1.05;;;25.10;54.20;;;;;;4169871;28;20901;-64
2021/11/02 16:26:50;;;;;;;2.67;1.20;;;25.10;54.20;;;;;;4173283;28;20056;-64
2021/11/02 16:29:16;;;;;;;2.15;0.95;;;25.10;54.30;;;;;;4171264;28;20136;-63
2021/11/02 16:31:41;;;;;;;1.88;0.85;;;25.10;54.30;;;;;;4172264;28;20041;-62
2021/11/02 16:34:22;;;;;;;2.05;1.00;;;25.10;54.30;;;;;;4171171;28;20037;-62
2021/11/02 16:36:45;;;;;;;2.35;0.95;;;25.10;54.40;;;;;;4169987;28;20041;-63
2021/11/02 16:39:20;;;;;;;1.48;0.80;;;25.10;54.40;;;;;;4170833;28;20143;-62
2021/11/02 16:41:57;;;;;;;1.60;0.70;;;25.00;54.30;;;;;;4171686;28;20080;-65
2021/11/02 16:44:46;;;;;;;1.63;0.80;;;25.00;54.50;;;;;;4172405;28;20037;-66
2021/11/02 16:47:11;;;;;;;1.98;0.90;;;25.00;54.70;;;;;;4168413;28;20435;-60
2021/11/02 16:49:34;;;;;;;1.42;0.82;;;25.00;54.60;;;;;;4171897;28;20040;-60
2021/11/02 16:52:07;;;;;;;3.08;0.93;;;25.00;54.70;;;;;;4171249;28;20040;-58
2021/11/02 16:54:32;;;;;;;2.95;1.25;;;25.00;54.70;;;;;;4170637;28;20047;-58
2021/11/02 16:57:16;;;;;;;3.50;1.40;;;24.90;54.70;;;;;;4170278;28;20505;-60
2021/11/02 16:59:53;;;;;;;3.70;1.23;;;24.90;54.70;;;;;;4192444;28;20044;-62
2021/11/02 17:02:37;;;;;;;4.90;1.05;;;24.90;54.70;;;;;;4196249;28;20760;-62
2021/11/02 17:05:13;;;;;;;2.75;0.88;;;24.90;54.80;;;;;;4202592;28;20036;-61
2021/11/02 17:07:40;;;;;;;8.23;1.48;;;24.90;54.90;;;;;;4201323;28;20036;-64
2021/11/02 17:10:28;;;;;;;4.63;1.08;;;24.90;55.00;;;;;;4198965;28;20820;-60
2021/11/02 17:12:59;;;;;;;3.40;1.15;;;24.80;54.90;;;;;;4183609;28;20083;-61
2021/11/02 17:15:25;;;;;;;4.47;1.00;;;24.80;54.90;;;;;;4195563;28;20103;-60
2021/11/02 17:17:48;;;;;;;3.90;1.10;;;24.80;55.00;;;;;;4194930;28;20632;-62
2021/11/02 17:20:13;;;;;;;2.65;0.95;;;24.80;55.00;;;;;;4194619;28;20058;-61
2021/11/02 17:22:36;;;;;;;5.10;1.13;;;24.80;55.10;;;;;;4192530;28;20088;-63
2021/11/02 17:24:59;;;;;;;2.10;0.85;;;24.80;55.10;;;;;;4188162;28;20093;-62
2021/11/02 17:27:22;;;;;;;2.92;1.10;;;24.80;55.10;;;;;;4183528;28;20510;-60
2021/11/02 17:29:44;;;;;;;9.13;1.10;;;24.80;55.10;;;;;;4185991;28;20047;-62
2021/11/02 17:32:08;;;;;;;1.73;0.80;;;24.80;55.10;;;;;;4184386;28;20044;-58
2021/11/02 17:34:33;;;;;;;2.00;0.90;;;24.80;55.10;;;;;;4185966;28;20045;-58
2021/11/02 17:37:03;;;;;;;2.75;0.98;;;24.80;55.20;;;;;;4185240;28;20036;-57
2021/11/02 17:39:29;;;;;;;1.40;0.90;;;24.80;55.10;;;;;;4183708;28;20048;-57
2021/11/02 17:41:52;;;;;;;3.42;1.17;;;24.80;55.20;;;;;;4183771;28;20158;-57
2021/11/02 17:44:15;;;;;;;4.47;1.00;;;24.80;55.00;;;;;;4183522;28;20127;-57
2021/11/02 17:46:38;;;;;;;2.10;0.90;;;24.80;55.00;;;;;;4182937;28;20110;-57
2021/11/02 17:49:01;;;;;;;2.27;1.00;;;24.80;54.90;;;;;;4183968;28;20700;-58
2021/11/02 17:51:24;;;;;;;4.20;1.20;;;24.70;54.80;;;;;;4187435;28;20126;-57
2021/11/02 17:53:47;;;;;;;3.22;1.10;;;24.70;54.70;;;;;;4181915;28;20068;-59
2021/11/02 17:56:13;;;;;;;1.60;0.75;;;24.70;54.80;;;;;;4183829;28;20097;-58
2021/11/02 17:58:39;;;;;;;4.28;1.10;;;24.70;54.80;;;;;;4183802;28;21313;-57
2021/11/02 18:01:04;;;;;;;3.95;1.13;;;24.70;54.90;;;;;;4185623;28;20056;-60
2021/11/02 18:03:30;;;;;;;2.50;1.10;;;24.70;54.90;;;;;;4182929;28;20069;-57
2021/11/02 18:05:59;;;;;;;2.72;1.00;;;24.70;54.40;;;;;;4188333;28;20606;-58
2021/11/02 18:08:22;;;;;;;2.08;0.93;;;24.60;54.90;;;;;;4182883;28;20050;-58
2021/11/02 18:10:45;;;;;;;3.20;1.10;;;24.60;54.90;;;;;;4183978;28;20037;-58
2021/11/02 18:13:08;;;;;;;3.00;1.20;;;24.60;54.90;;;;;;4185567;28;20052;-57
2021/11/02 18:15:31;;;;;;;2.17;1.30;;;24.60;54.90;;;;;;4181511;28;20406;-58
2021/11/02 18:17:54;;;;;;;3.05;1.02;;;24.60;54.90;;;;;;4185259;28;20067;-59
2021/11/02 18:20:17;;;;;;;;;;;24.60;54.90;;;;;;4186168;28;20380;-60
2021/11/02 18:22:43;;;;;;;2.20;1.00;;;24.60;55.00;;;;;;4187528;28;19994;-59
2021/11/02 18:25:06;;;;;;;2.65;1.00;;;24.60;55.00;;;;;;4183378;28;20043;-60